sim
Sign-in with your pilot id or email,
or register
Callsign
Passwort

Schedule Details

Flight Number: RYR6303 (1)
Departure: Fuerteventura Airport (GCFV) at 19:45
Arrival: Barcelona El Prat Airport (LEBL) at 22:55
Route: Ryanair Passenger Schedule. Enter filed route here before submitting Pirep.

Weather Information
Getting current METAR information for GCFV 182100Z 36015KT 9999 FEW045 18/10 Q1019
Getting current METAR information for LEBL 182100Z 06020KT 9999 FEW030 16/09 Q1019 NOSIG

Schedule Frequency

Route Map